Time;durP1;ratioP1;P1;durP2;ratioP2;P2;SDS_P1;SDS_P2;PMS_P1;PMS_P2;Temp;Humidity;BMP_temperature;BMP_pressure;BME280_temperature;BME280_humidity;BME280_pressure;Samples;Min_cycle;Max_cycle;Signal;HPM_P1;HPM_P2
2022/05/16 00:02:49;;;;;;;5.80;1.48;;;;;;;18.23;37.78;98062.13;10353164;28;20060;-73
2022/05/16 00:08:10;;;;;;;5.82;1.75;;;;;;;18.19;37.98;98057.06;10352970;28;20093;-73
2022/05/16 00:13:30;;;;;;;4.45;1.45;;;;;;;18.12;37.96;98063.06;10380050;28;20042;-74
2022/05/16 00:18:51;;;;;;;5.90;1.70;;;;;;;18.01;38.26;98059.81;10366734;28;20041;-73
2022/05/16 00:24:11;;;;;;;6.95;1.67;;;;;;;17.88;38.21;98069.13;10352177;28;20073;-73
2022/05/16 00:29:32;;;;;;;5.00;1.52;;;;;;;17.81;39.00;98077.97;10380321;28;20069;-74
2022/05/16 00:34:53;;;;;;;4.53;1.40;;;;;;;17.77;38.94;98078.53;10366025;28;20074;-73
2022/05/16 00:40:14;;;;;;;5.55;1.55;;;;;;;17.70;38.97;98083.16;10351433;28;20504;-73
2022/05/16 00:45:34;;;;;;;5.57;1.60;;;;;;;17.60;39.31;98084.78;10365511;28;20077;-73
2022/05/16 00:50:55;;;;;;;6.55;1.48;;;;;;;17.54;39.73;98078.84;10337748;28;20085;-73
2022/05/16 00:56:15;;;;;;;5.13;1.20;;;;;;;17.43;39.92;98089.66;10365101;28;20088;-74
2022/05/16 01:07:35;;;;;;;6.30;1.40;;;;;;;17.31;40.53;98094.75;10366812;28;20070;-74
2022/05/16 01:12:56;;;;;;;5.25;1.58;;;;;;;17.19;40.45;98082.91;10323602;28;20038;-74
2022/05/16 01:18:19;;;;;;;3.97;1.48;;;;;;;17.05;40.51;98085.03;10350559;28;20472;-73
2022/05/16 01:23:44;;;;;;;4.72;1.90;;;;;;;16.94;41.12;98077.47;10364082;28;20042;-74
2022/05/16 01:29:05;;;;;;;3.42;1.40;;;;;;;16.82;41.21;98072.72;10363390;28;20050;-73
2022/05/16 01:34:26;;;;;;;6.93;1.67;;;;;;;16.70;41.70;98072.13;10363088;28;20078;-74
2022/05/16 01:39:46;;;;;;;6.30;1.60;;;;;;;16.60;41.82;98071.59;10377738;28;20038;-75
2022/05/16 01:45:08;;;;;;;5.35;1.50;;;;;;;16.52;42.13;98071.22;10349270;28;20500;-73
2022/05/16 01:50:29;;;;;;;4.82;1.67;;;;;;;16.48;42.47;98054.09;10335923;28;20070;-75
2022/05/16 01:55:49;;;;;;;4.75;1.83;;;;;;;16.41;42.55;98052.34;10362537;28;20077;-75
2022/05/16 02:01:10;;;;;;;8.23;2.20;;;;;;;16.34;42.62;98050.56;10362103;28;20038;-75
2022/05/16 02:06:31;;;;;;;6.40;1.60;;;;;;;16.21;42.96;98049.22;10361983;28;20078;-74
2022/05/16 02:11:52;;;;;;;7.95;2.17;;;;;;;16.18;42.89;98048.41;10391405;28;20061;-73
2022/05/16 02:17:12;;;;;;;5.20;1.60;;;;;;;16.12;42.94;98053.00;10363725;28;20076;-74
2022/05/16 02:28:14;;;;;;;6.82;1.80;;;;;;;16.05;43.15;98046.34;10395341;28;20053;-73
2022/05/16 02:33:40;;;;;;;7.85;2.10;;;;;;;15.94;43.56;98044.34;10365359;28;20096;-73
2022/05/16 02:39:01;;;;;;;6.18;1.83;;;;;;;15.91;43.81;98037.88;10376415;28;20483;-73
2022/05/16 02:44:22;;;;;;;3.97;1.48;;;;;;;15.94;44.16;98038.72;10373565;28;20065;-74
2022/05/16 02:49:43;;;;;;;7.00;1.85;;;;;;;15.90;44.04;98044.13;10375174;28;20389;-74
2022/05/16 02:55:04;;;;;;;7.63;1.75;;;;;;;15.85;44.10;98042.47;10344102;28;20527;-76
2022/05/16 03:00:25;;;;;;;6.22;1.77;;;;;;;15.72;44.29;98053.09;10377521;28;20057;-73
2022/05/16 03:05:45;;;;;;;3.38;1.60;;;;;;;15.65;44.71;98056.97;10361783;28;20450;-73
2022/05/16 03:11:06;;;;;;;6.28;2.15;;;;;;;15.56;44.97;98057.84;10389799;28;20072;-75
2022/05/16 03:16:27;;;;;;;5.55;1.95;;;;;;;15.45;45.04;98053.03;10361705;28;20073;-75
2022/05/16 03:21:48;;;;;;;6.15;2.00;;;;;;;15.40;45.15;98054.91;10375942;28;20049;-75
2022/05/16 03:27:37;;;;;;;4.55;1.55;;;;;;;15.38;45.41;98060.41;10379680;28;20079;-76
2022/05/16 03:32:58;;;;;;;9.18;2.25;;;;;;;15.34;45.81;98059.47;10371008;28;20105;-74
2022/05/16 03:45:12;;;;;;;6.00;2.28;;;;;;;15.35;45.96;98053.22;10393586;28;20046;-75
2022/05/16 03:51:02;;;;;;;6.88;2.10;;;;;;;15.44;46.25;98049.50;10388660;28;20050;-73
2022/05/16 03:56:24;;;;;;;5.47;1.70;;;;;;;15.48;46.17;98051.06;10356375;28;20072;-76
2022/05/16 04:01:45;;;;;;;6.32;2.10;;;;;;;15.48;46.33;98048.25;10382486;28;20044;-73
2022/05/16 04:07:06;;;;;;;6.10;2.03;;;;;;;15.52;46.53;98051.28;10368450;28;20049;-73
2022/05/16 04:12:27;;;;;;;6.03;1.90;;;;;;;15.60;46.34;98057.31;10371015;28;20105;-73
2022/05/16 04:17:48;;;;;;;4.45;2.00;;;;;;;15.67;46.57;98057.06;10368865;28;20069;-73
2022/05/16 04:23:11;;;;;;;6.88;2.30;;;;;;;15.77;46.82;98061.75;10376346;28;20124;-73
2022/05/16 04:28:32;;;;;;;10.88;2.25;;;;;;;15.83;46.70;98043.09;10368917;28;20041;-74
2022/05/16 04:33:52;;;;;;;9.60;2.20;;;;;;;15.70;46.48;98055.06;10383853;28;20143;-74
2022/05/16 04:39:13;;;;;;;5.15;2.03;;;;;;;15.77;46.52;98058.94;10356277;28;20479;-74
2022/05/16 04:44:38;;;;;;;5.80;2.72;;;;;;;15.85;46.79;98053.75;10380589;28;20080;-77
2022/05/16 04:49:59;;;;;;;5.97;2.13;;;;;;;16.05;46.81;98054.78;10393578;28;20041;-74
2022/05/16 04:55:20;;;;;;;6.38;2.50;;;;;;;16.16;46.61;98053.19;10360004;28;20392;-75
2022/05/16 05:00:41;;;;;;;6.28;2.35;;;;;;;16.43;46.53;98046.81;10365166;28;20033;-74
2022/05/16 05:06:02;;;;;;;8.15;2.58;;;;;;;16.65;46.50;98050.69;10389908;28;20057;-75
2022/05/16 05:17:05;;;;;;;5.70;2.28;;;;;;;17.12;45.98;98064.25;10390016;28;20494;-76
2022/05/16 05:22:26;;;;;;;7.57;2.70;;;;;;;17.49;45.62;98071.56;10339057;28;20054;-76
2022/05/16 05:27:48;;;;;;;7.30;2.60;;;;;;;17.77;44.99;98070.06;10365736;28;20431;-75
2022/05/16 05:33:09;;;;;;;7.25;2.30;;;;;;;18.33;44.88;98075.97;10353047;28;20448;-75
2022/05/16 05:38:30;;;;;;;4.47;2.28;;;;;;;19.49;44.56;98078.53;10393843;28;20041;-76
2022/05/16 05:43:50;;;;;;;10.00;2.20;;;;;;;20.97;43.57;98085.88;10403766;28;20503;-75
2022/05/16 05:49:12;;;;;;;6.05;2.35;;;;;;;22.19;41.24;98095.19;10375928;28;20407;-75
2022/05/16 05:54:32;;;;;;;8.70;2.67;;;;;;;23.18;39.44;98092.75;10389402;28;20037;-74
2022/05/16 05:59:54;;;;;;;9.60;2.30;;;;;;;23.96;37.61;98095.88;10376223;28;20403;-73
2022/05/16 06:05:18;;;;;;;7.18;2.10;;;;;;;25.16;36.84;98092.34;10375226;28;20061;-74
2022/05/16 06:10:39;;;;;;;5.65;1.95;;;;;;;26.09;33.72;98095.06;10389151;28;20041;-75
2022/05/16 06:16:01;;;;;;;5.97;2.13;;;;;;;26.97;33.15;98105.28;10388757;28;20041;-81
2022/05/16 06:21:22;;;;;;;6.97;2.28;;;;;;;27.92;30.90;98108.06;10375072;28;20038;-77
2022/05/16 06:26:43;;;;;;;8.77;2.80;;;;;;;28.46;29.92;98098.22;10374387;28;20045;-83
2022/05/16 06:32:04;;;;;;;7.97;3.03;;;;;;;35.34;23.00;98101.91;10373843;28;20044;-86
2022/05/16 06:37:25;;;;;;;7.20;2.80;;;;;;;42.61;16.81;98092.78;10388169;28;20052;-90
2022/05/16 06:42:51;;;;;;;8.32;2.47;;;;;;;46.10;11.40;98103.81;10389144;28;20128;-82
2022/05/16 06:48:12;;;;;;;11.32;2.75;;;;;;;47.80;8.50;98108.13;10388309;28;20048;-81
2022/05/16 06:53:33;;;;;;;5.28;2.50;;;;;;;50.06;7.26;98103.56;10360641;28;20045;-83
2022/05/16 06:59:13;;;;;;;7.03;2.22;;;;;;;50.98;6.52;98104.94;10373785;28;20065;-87
2022/05/16 07:04:36;;;;;;;6.15;2.10;;;;;;;51.12;5.36;98099.97;10388547;28;20057;-82
2022/05/16 07:09:58;;;;;;;5.50;2.03;;;;;;;50.53;5.16;98103.06;10387732;28;20041;-80
2022/05/16 07:15:20;;;;;;;8.35;2.03;;;;;;;51.90;4.33;98094.09;10387237;28;20502;-83
2022/05/16 07:20:41;;;;;;;7.35;2.22;;;;;;;52.36;4.63;98085.88;10357904;28;20067;-88
2022/05/16 07:31:44;;;;;;;11.43;1.83;;;;;;;53.56;3.34;98090.31;10378857;28;20075;-82
2022/05/16 07:37:08;;;;;;;6.80;2.08;;;;;;;53.47;3.74;98091.16;10371496;28;20140;-85
2022/05/16 07:42:29;;;;;;;9.60;2.25;;;;;;;52.96;3.55;98094.91;10373129;28;20094;-88
2022/05/16 07:47:50;;;;;;;7.65;1.77;;;;;;;54.52;3.34;98075.66;10366541;28;20072;-84
2022/05/16 07:53:16;;;;;;;8.90;1.95;;;;;;;55.58;2.83;98075.31;10345047;28;20539;-89
2022/05/16 07:58:38;;;;;;;11.48;2.05;;;;;;;54.39;2.93;98075.59;10366954;28;20439;-85
2022/05/16 08:03:59;;;;;;;9.68;1.95;;;;;;;53.35;3.20;98059.59;10343497;28;20053;-82
2022/05/16 08:15:12;;;;;;;6.05;2.10;;;;;;;53.62;2.95;98059.84;10399265;28;20045;-81
2022/05/16 08:20:37;;;;;;;7.70;2.17;;;;;;;53.89;3.13;98063.75;10379941;28;20400;-82
2022/05/16 08:26:01;;;;;;;12.77;2.30;;;;;;;54.18;2.62;98061.44;10380060;28;20049;-81
2022/05/16 08:31:28;;;;;;;4.28;2.10;;;;;;;54.71;2.62;98065.41;10379923;28;20414;-82
2022/05/16 08:43:08;;;;;;;7.35;2.80;;;;;;;54.80;2.89;98056.25;10391484;28;20037;-82
2022/05/16 08:48:39;;;;;;;7.33;3.07;;;;;;;55.87;2.46;98063.81;10379260;28;20041;-82
2022/05/16 08:54:37;;;;;;;5.43;3.10;;;;;;;56.96;1.17;98064.69;10370945;28;20051;-80
2022/05/16 09:00:06;;;;;;;8.07;3.50;;;;;;;56.96;1.68;98064.69;10392343;28;20048;-78
2022/05/16 09:05:33;;;;;;;7.68;3.20;;;;;;;56.00;1.58;98060.81;10379040;28;20307;-78
2022/05/16 09:11:05;;;;;;;4.78;3.17;;;;;;;55.37;2.22;98068.63;10378916;28;20041;-78
2022/05/16 09:16:33;;;;;;;5.88;3.00;;;;;;;55.12;2.36;98064.66;10379113;28;20464;-78
2022/05/16 09:22:08;;;;;;;4.82;2.92;;;;;;;55.21;2.80;98054.75;10404916;28;20498;-80
2022/05/16 09:33:25;;;;;;;8.65;2.50;;;;;;;54.59;2.48;98051.78;10395901;28;20144;-80
2022/05/16 09:38:46;;;;;;;5.20;2.85;;;;;;;53.51;2.86;98039.34;10390291;28;20096;-79
2022/05/16 09:44:26;;;;;;;5.93;3.40;;;;;;;55.38;1.97;98027.44;10377337;28;20052;-79
2022/05/16 09:50:23;;;;;;;5.78;3.90;;;;;;;55.76;1.52;98025.38;10385554;28;20128;-84
2022/05/16 09:56:36;;;;;;;;;;;;;;;;;;;;;
2022/05/16 10:02:18;;;;;;;8.82;5.43;;;;;;;56.43;1.49;98019.94;10361304;28;20404;-82
2022/05/16 10:08:13;;;;;;;6.43;5.60;;;;;;;55.31;1.96;98020.75;10334189;28;20113;-83
2022/05/16 10:13:47;;;;;;;;;;;;;;;55.14;1.79;98018.88;10328495;28;20367;-84
2022/05/16 10:19:27;;;;;;;8.75;6.10;;;;;;;52.94;2.39;98014.66;10350553;28;19921;-84
2022/05/16 10:24:52;;;;;;;6.65;6.05;;;;;;;54.19;2.39;98000.81;10326525;28;20058;-84
2022/05/16 10:30:23;;;;;;;7.18;6.07;;;;;;;52.60;2.93;97999.41;10348961;28;20472;-84
2022/05/16 10:36:12;;;;;;;5.20;4.80;;;;;;;51.98;2.94;98003.31;10334393;28;20140;-84
2022/05/16 10:41:54;;;;;;;5.05;4.40;;;;;;;52.52;3.47;97999.53;10347368;28;20117;-84
2022/05/16 10:47:58;;;;;;;4.45;2.40;;;;;;;54.40;2.58;97990.38;10355683;28;20065;-84
2022/05/16 10:53:26;;;;;;;4.32;1.10;;;;;;;53.79;2.24;97984.97;10356921;28;20038;-84
2022/05/16 10:58:56;;;;;;;2.33;0.70;;;;;;;51.76;2.37;97989.06;10328389;28;20079;-83
2022/05/16 11:04:39;;;;;;;5.28;0.98;;;;;;;45.18;5.66;97977.53;10356856;28;20053;-85
2022/05/16 11:10:17;;;;;;;5.85;1.02;;;;;;;41.03;8.48;97967.91;10376811;28;20050;-85
2022/05/16 11:15:43;;;;;;;3.30;0.82;;;;;;;38.49;9.73;97956.22;10355992;28;20049;-84
2022/05/16 11:21:12;;;;;;;4.63;0.75;;;;;;;36.76;12.11;97951.00;10353228;28;20073;-84
2022/05/16 11:26:41;;;;;;;4.88;1.30;;;;;;;36.20;12.30;97942.69;10377862;28;20045;-81
2022/05/16 11:32:15;;;;;;;2.73;1.00;;;;;;;35.98;13.22;97927.38;10370098;28;20048;-82
2022/05/16 11:38:03;;;;;;;3.72;0.90;;;;;;;35.41;13.53;97931.97;10373112;28;20315;-79
2022/05/16 11:43:25;;;;;;;6.15;1.10;;;;;;;35.76;13.40;97920.03;10341068;28;20060;-81
2022/05/16 11:48:53;;;;;;;6.03;1.23;;;;;;;36.13;13.44;97919.63;10389030;28;20057;-81
2022/05/16 11:54:36;;;;;;;3.42;0.77;;;;;;;36.69;13.47;97930.88;10396662;28;20392;-81
2022/05/16 12:05:51;;;;;;;9.30;1.80;;;;;;;36.04;13.34;97924.28;10405881;28;20408;-79
2022/05/16 12:11:21;;;;;;;7.18;1.10;;;;;;;36.00;13.75;97907.00;10380408;28;20065;-81
2022/05/16 12:17:05;;;;;;;4.18;0.90;;;;;;;36.41;13.91;97908.59;10393567;28;20120;-81
2022/05/16 12:22:31;;;;;;;2.80;1.00;;;;;;;36.11;13.65;97895.75;10407942;28;20045;-81
2022/05/16 13:33:40;;;;;;;5.18;1.15;;;;;;;33.51;15.13;97846.22;10382172;28;20120;-82
2022/05/16 13:39:09;;;;;;;6.75;1.40;;;;;;;32.62;15.88;97816.94;10391490;28;20049;-77
2022/05/16 13:44:35;;;;;;;2.70;0.85;;;;;;;32.65;16.36;97812.53;10390825;28;20038;-81
2022/05/16 13:49:56;;;;;;;3.75;1.08;;;;;;;32.79;16.26;97813.72;10376422;28;20048;-80
2022/05/16 13:55:17;;;;;;;;;;;;;;;33.09;16.13;97816.00;10389538;28;20045;-82
2022/05/16 14:00:39;;;;;;;2.08;0.80;;;;;;;33.26;15.69;97816.38;10389595;28;19921;-80
2022/05/16 14:06:00;;;;;;;;;;;;;;;33.10;16.48;97800.06;10376618;28;20048;-78
2022/05/16 14:11:22;;;;;;;3.22;0.80;;;;;;;32.17;16.30;97797.53;10390162;28;20271;-78
2022/05/16 14:16:50;;;;;;;4.53;0.90;;;;;;;31.61;17.22;97799.84;10361118;28;20041;-84
2022/05/16 14:22:29;;;;;;;5.85;1.20;;;;;;;31.95;17.90;97789.25;10324244;28;20046;-83
2022/05/16 14:28:15;;;;;;;2.97;1.00;;;;;;;31.92;18.27;97784.97;10329145;28;20062;-83
2022/05/16 14:33:38;;;;;;;3.88;1.20;;;;;;;31.98;17.54;97778.38;10356746;28;20388;-79
2022/05/16 15:37:48;;;;;;;3.33;1.20;;;;;;;30.92;18.47;97734.53;10109904;29;20045;-85
2022/05/16 15:43:11;;;;;;;2.72;0.70;;;;;;;30.60;18.94;97737.81;10086343;29;20132;-83
2022/05/16 15:48:33;;;;;;;4.82;1.02;;;;;;;30.38;19.26;97736.59;10103082;29;20044;-83
2022/05/16 15:53:55;;;;;;;2.83;0.82;;;;;;;30.49;19.21;97729.25;10063814;29;20059;-81
2022/05/16 15:59:16;;;;;;;3.92;0.85;;;;;;;30.50;19.15;97730.00;10095051;29;20048;-80
2022/05/16 16:10:19;;;;;;;5.05;1.17;;;;;;;30.28;19.49;97722.31;10113645;29;20063;-84
2022/05/16 16:16:01;;;;;;;2.42;0.82;;;;;;;30.11;19.37;97718.91;10100394;29;20079;-84
2022/05/16 16:21:23;;;;;;;3.28;0.88;;;;;;;30.02;19.73;97722.59;10095468;29;20088;-85
2022/05/16 16:26:44;;;;;;;;;;;;;;;29.84;19.86;97726.34;10095227;29;20059;-86
2022/05/16 16:32:06;;;;;;;2.90;0.82;;;;;;;29.54;19.69;97724.47;10104387;29;19971;-85
2022/05/16 16:38:35;;;;;;;6.00;1.08;;;;;;;29.22;20.38;97720.34;10100502;29;20036;-85
2022/05/16 16:43:56;;;;;;;7.28;1.15;;;;;;;29.04;20.76;97715.44;10122321;29;20119;-82
2022/05/16 16:49:17;;;;;;;3.92;1.15;;;;;;;28.80;21.47;97721.28;10108105;29;20048;-81
2022/05/16 17:00:22;;;;;;;6.38;1.65;;;;;;;28.61;22.26;97729.28;10115021;29;20096;-81
2022/05/16 17:05:44;;;;;;;;;;;;;;;28.38;23.44;97731.53;10096132;29;20045;-83
2022/05/16 17:11:06;;;;;;;4.13;1.08;;;;;;;28.16;23.60;97734.41;10107592;29;19923;-82
2022/05/16 17:16:27;;;;;;;3.67;1.70;;;;;;;28.00;23.89;97740.91;10127814;29;20048;-83
2022/05/16 17:21:48;;;;;;;6.05;1.60;;;;;;;27.80;23.71;97740.94;10123761;29;20158;-84
2022/05/16 17:27:10;;;;;;;3.13;1.42;;;;;;;27.61;25.05;97766.00;10096818;29;20048;-83
2022/05/16 17:32:34;;;;;;;6.65;1.48;;;;;;;27.24;25.66;97754.50;10102348;29;20483;-84
2022/05/16 17:37:56;;;;;;;5.32;1.55;;;;;;;26.95;26.45;97773.75;10110006;29;20112;-82
2022/05/16 17:43:17;;;;;;;5.70;1.50;;;;;;;26.70;28.03;97769.34;10107830;29;20121;-83
2022/05/16 17:48:38;;;;;;;5.57;1.30;;;;;;;26.36;30.26;97779.19;10114061;29;20072;-83
2022/05/16 17:54:09;;;;;;;6.40;1.52;;;;;;;25.96;29.89;97768.94;10124659;29;20060;-84
2022/05/16 17:59:30;;;;;;;4.95;1.30;;;;;;;25.52;30.10;97783.53;10111211;29;20114;-88
2022/05/16 18:04:53;;;;;;;5.72;1.50;;;;;;;25.36;31.36;97786.97;10120242;29;20100;-83
2022/05/16 18:10:14;;;;;;;5.00;1.30;;;;;;;25.20;32.34;97797.53;10110445;29;20052;-84
2022/05/16 18:15:35;;;;;;;4.25;1.15;;;;;;;25.24;32.84;97809.69;10107171;29;20435;-87
2022/05/16 18:20:56;;;;;;;3.80;1.30;;;;;;;25.03;34.15;97808.03;10100384;29;20045;-85
2022/05/16 18:26:17;;;;;;;4.78;1.58;;;;;;;24.94;33.95;97812.19;10109433;29;20064;-80
2022/05/16 18:31:42;;;;;;;4.30;1.60;;;;;;;24.92;34.09;97823.59;10099898;29;20040;-85
2022/05/16 18:37:03;;;;;;;5.55;1.45;;;;;;;24.90;34.70;97824.28;10092643;29;20048;-85
2022/05/16 18:53:46;;;;;;;4.78;1.48;;;;;;;24.48;36.58;97881.50;10114018;29;20041;-81
2022/05/16 18:59:07;;;;;;;5.20;1.52;;;;;;;24.38;37.66;97884.91;10136016;29;20055;-82
2022/05/16 19:04:28;;;;;;;3.47;1.38;;;;;;;24.30;38.93;97899.03;10140017;29;20091;-85
2022/05/16 19:09:50;;;;;;;7.65;1.40;;;;;;;24.01;39.80;97891.41;10110231;29;20052;-82
2022/05/16 19:15:11;;;;;;;5.40;1.60;;;;;;;23.52;40.49;97899.06;10107737;29;20121;-84
2022/05/16 19:20:33;;;;;;;5.50;2.10;;;;;;;23.37;42.41;97892.38;10121200;29;20326;-83
2022/05/16 19:25:54;;;;;;;4.40;1.77;;;;;;;23.36;43.51;97888.81;10118730;29;20068;-85
2022/05/16 19:36:55;;;;;;;4.05;1.92;;;;;;;23.13;45.96;97881.94;10123784;29;20407;-75
2022/05/16 19:42:19;;;;;;;5.97;1.45;;;;;;;23.04;46.27;97868.94;10119512;29;20061;-75
2022/05/16 19:47:52;;;;;;;3.25;1.40;;;;;;;22.89;47.63;97863.66;10125371;29;20044;-75
2022/05/16 19:53:13;;;;;;;7.22;1.98;;;;;;;22.79;47.83;97867.72;10137482;29;20044;-76
2022/05/16 19:58:34;;;;;;;6.10;2.30;;;;;;;22.78;48.22;97865.53;10129059;29;20510;-75
2022/05/16 20:03:55;;;;;;;7.88;2.25;;;;;;;22.77;48.80;97858.38;10118864;29;20213;-77
2022/05/16 20:09:17;;;;;;;8.90;1.92;;;;;;;22.67;49.84;97869.56;10125385;29;20056;-75
2022/05/16 20:14:38;;;;;;;5.15;2.45;;;;;;;22.63;50.37;97873.03;10127580;29;20420;-75
2022/05/16 20:19:58;;;;;;;5.30;2.28;;;;;;;22.58;50.49;97868.66;10127212;29;20048;-75
2022/05/16 20:25:25;;;;;;;5.18;2.35;;;;;;;22.60;50.18;97885.06;10109384;29;20052;-75
2022/05/16 20:30:48;;;;;;;4.35;2.35;;;;;;;22.56;50.40;97892.09;10137718;29;20040;-76
2022/05/16 20:36:10;;;;;;;5.05;2.10;;;;;;;22.59;50.42;97912.78;10112719;29;20052;-79
2022/05/16 20:41:31;;;;;;;7.32;2.65;;;;;;;22.57;52.75;97898.50;10123893;29;20064;-78
2022/05/16 20:46:52;;;;;;;8.95;2.83;;;;;;;22.45;51.87;97915.28;10128358;29;20076;-76
2022/05/16 20:52:14;;;;;;;7.83;2.87;;;;;;;22.39;52.14;97935.03;10097894;29;20041;-76
2022/05/16 20:57:35;;;;;;;6.90;2.38;;;;;;;22.31;53.43;97935.59;10113039;29;20048;-76
2022/05/16 21:02:56;;;;;;;6.65;2.90;;;;;;;22.09;53.78;97924.38;10126564;29;20048;-77
2022/05/16 21:08:17;;;;;;;10.98;3.50;;;;;;;21.86;54.41;97906.00;10100247;29;20049;-76
2022/05/16 21:13:58;;;;;;;6.45;2.70;;;;;;;21.77;55.30;97912.88;10116099;29;20055;-76
2022/05/16 21:19:18;;;;;;;12.30;3.28;;;;;;;21.67;55.94;97906.94;10111075;29;20048;-76
2022/05/16 21:24:39;;;;;;;12.23;3.67;;;;;;;21.50;56.15;97910.72;10086221;29;20045;-76
2022/05/16 21:30:00;;;;;;;9.65;3.75;;;;;;;21.35;56.78;97918.13;10084326;29;20056;-75
2022/05/16 21:35:21;;;;;;;8.95;3.30;;;;;;;21.38;57.06;97917.53;10125258;29;20104;-76
2022/05/16 21:40:42;;;;;;;5.75;3.03;;;;;;;21.35;57.11;97901.09;10099338;29;20061;-76
2022/05/16 21:46:02;;;;;;;6.15;3.20;;;;;;;21.26;57.33;97905.84;10125937;29;20049;-76
2022/05/16 21:51:23;;;;;;;11.73;3.90;;;;;;;21.27;58.51;97910.13;10112771;29;20071;-77
2022/05/16 21:56:45;;;;;;;9.23;3.60;;;;;;;20.48;58.76;97890.75;10126111;29;20043;-77
2022/05/16 22:02:06;;;;;;;9.13;3.40;;;;;;;19.93;59.36;97886.13;10100859;29;20044;-75
2022/05/16 22:07:26;;;;;;;7.30;3.10;;;;;;;19.71;60.15;97880.44;10111911;29;20041;-76
2022/05/16 22:12:47;;;;;;;7.40;3.35;;;;;;;19.97;61.05;97878.47;10124943;29;20040;-76
2022/05/16 22:18:07;;;;;;;6.57;3.50;;;;;;;20.25;60.89;97892.84;10125548;29;20499;-76
2022/05/16 22:23:28;;;;;;;7.53;4.38;;;;;;;20.18;60.05;97894.03;10111066;29;20060;-76
2022/05/16 22:28:50;;;;;;;10.48;4.28;;;;;;;20.11;60.24;97886.72;10110605;29;20100;-75
2022/05/16 22:34:11;;;;;;;9.20;3.80;;;;;;;19.89;61.12;97883.16;10109810;29;20072;-75
2022/05/16 22:39:31;;;;;;;6.22;3.72;;;;;;;19.93;61.51;97886.13;10122755;29;20538;-75
2022/05/16 22:44:52;;;;;;;7.70;3.90;;;;;;;20.17;61.66;97901.09;10109539;29;20060;-75
2022/05/16 22:50:14;;;;;;;7.78;3.70;;;;;;;20.32;61.46;97899.44;10109492;29;20725;-75
2022/05/16 22:55:34;;;;;;;6.22;3.30;;;;;;;20.44;61.21;97918.94;10096503;29;20049;-74
2022/05/16 23:00:56;;;;;;;9.50;3.40;;;;;;;20.53;61.31;97937.66;10096091;29;20051;-74
2022/05/16 23:06:18;;;;;;;6.35;2.97;;;;;;;20.42;61.22;97947.22;10108918;29;20048;-74
2022/05/16 23:11:39;;;;;;;6.93;2.85;;;;;;;20.28;62.13;97953.88;10108913;29;20067;-76
2022/05/16 23:16:59;;;;;;;7.72;4.07;;;;;;;20.07;62.39;97934.00;10109084;29;20791;-77
2022/05/16 23:22:20;;;;;;;8.27;4.43;;;;;;;19.81;62.24;97939.53;10108763;29;20088;-77
2022/05/16 23:27:41;;;;;;;6.95;3.75;;;;;;;19.62;63.94;97933.25;10095788;29;20048;-77
2022/05/16 23:33:03;;;;;;;8.30;3.40;;;;;;;19.57;64.32;97916.75;10108534;29;20052;-76
2022/05/16 23:38:24;;;;;;;6.60;4.40;;;;;;;19.55;64.58;97916.66;10095270;29;20134;-75
2022/05/16 23:43:45;;;;;;;6.90;4.22;;;;;;;19.63;64.85;97905.66;10128339;29;20415;-75
2022/05/16 23:49:05;;;;;;;5.60;4.03;;;;;;;19.57;64.32;97908.25;10115724;29;20051;-75
2022/05/16 23:54:26;;;;;;;10.73;4.88;;;;;;;19.47;64.52;97916.38;10116295;29;20044;-75
2022/05/16 23:59:47;;;;;;;6.45;4.00;;;;;;;19.27;65.15;97910.72;10115454;29;20049;-75
